createdAt,value
2022-08-05T00:00:51.557Z,57.98
2022-08-05T00:03:53.519Z,57.40
2022-08-05T00:06:59.202Z,56.19
2022-08-05T00:10:01.116Z,57.36
2022-08-05T00:13:02.878Z,56.91
2022-08-05T00:16:06.119Z,57.61
2022-08-05T00:19:10.393Z,56.59
2022-08-05T00:22:12.475Z,56.71
2022-08-05T00:25:14.162Z,58.24
2022-08-05T00:28:29.458Z,59.32
2022-08-05T00:31:53.458Z,59.67
2022-08-05T00:35:06.591Z,59.51
2022-08-05T00:38:09.555Z,58.97
2022-08-05T00:41:11.660Z,59.72
2022-08-05T00:44:13.736Z,59.85
2022-08-05T00:47:16.450Z,60.64
2022-08-05T00:50:18.860Z,60.66
2022-08-05T00:54:00.738Z,60.71
2022-08-05T00:56:51.334Z,58.92
2022-08-05T00:59:53.327Z,58.98
2022-08-05T01:02:56.775Z,60.24
2022-08-05T01:05:58.929Z,59.62
2022-08-05T01:09:00.670Z,59.00
2022-08-05T01:12:18.114Z,58.83
2022-08-05T01:15:36.396Z,58.92
2022-08-05T01:18:48.117Z,58.49
2022-08-05T01:22:23.835Z,59.01
2022-08-05T01:26:01.800Z,58.62
2022-08-05T01:29:09.705Z,58.22
2022-08-05T01:32:18.368Z,56.89
2022-08-05T01:35:50.607Z,56.69
2022-08-05T01:38:49.891Z,56.10
2022-08-05T01:41:54.692Z,55.88
2022-08-05T01:44:59.243Z,56.29
2022-08-05T01:48:03.573Z,56.95
2022-08-05T01:51:14.844Z,59.53
2022-08-05T01:54:19.970Z,60.18
2022-08-05T01:58:10.037Z,59.23
2022-08-05T02:00:54.003Z,60.16
2022-08-05T02:03:56.966Z,61.23
2022-08-05T02:06:59.738Z,63.14
2022-08-05T02:10:07.961Z,63.37
2022-08-05T02:13:18.940Z,62.65
2022-08-05T02:16:42.246Z,62.12
2022-08-05T02:19:53.318Z,61.49
2022-08-05T02:23:05.671Z,62.56
2022-08-05T02:26:13.297Z,64.11
2022-08-05T02:29:21.540Z,63.78
2022-08-05T02:32:32.160Z,64.92
2022-08-05T02:35:38.505Z,67.13
2022-08-05T02:38:55.108Z,64.06
2022-08-05T02:42:01.221Z,66.79
2022-08-05T02:45:07.427Z,66.31
2022-08-05T02:48:12.574Z,68.60
2022-08-05T02:51:15.732Z,68.04
2022-08-05T02:54:36.073Z,67.19
2022-08-05T02:58:09.833Z,66.84
2022-08-05T03:01:03.287Z,66.12
2022-08-05T03:04:14.374Z,66.24
2022-08-05T03:07:59.373Z,65.67
2022-08-05T03:11:53.215Z,66.17
2022-08-05T03:14:08.029Z,66.72
2022-08-05T03:17:10.131Z,66.28
2022-08-05T03:20:13.640Z,67.04
2022-08-05T03:23:16.043Z,68.27
2022-08-05T03:26:31.378Z,67.45
2022-08-05T03:29:45.880Z,67.42
2022-08-05T03:32:57.300Z,66.66
2022-08-05T03:36:00.243Z,65.30
2022-08-05T03:39:08.049Z,65.09
2022-08-05T03:42:14.515Z,67.46
2022-08-05T03:45:21.585Z,68.80
2022-08-05T03:48:24.980Z,69.36
2022-08-05T03:52:37.397Z,69.49
2022-08-05T03:56:01.855Z,68.16
2022-08-05T03:58:29.238Z,67.89
2022-08-05T04:01:32.941Z,67.73
2022-08-05T04:04:35.993Z,66.03
2022-08-05T04:07:58.062Z,67.59
2022-08-05T04:11:02.743Z,67.35
2022-08-05T04:14:05.063Z,68.03
2022-08-05T04:17:09.259Z,67.49
2022-08-05T04:20:21.233Z,67.10
2022-08-05T04:24:05.368Z,66.70
2022-08-05T04:26:50.028Z,68.34
2022-08-05T04:29:51.684Z,67.39
2022-08-05T04:32:53.501Z,67.33
2022-08-05T04:36:10.879Z,67.52
2022-08-05T04:39:19.064Z,67.37
2022-08-05T04:42:20.692Z,67.48
2022-08-05T04:45:47.693Z,67.40
2022-08-05T04:48:49.141Z,66.27
2022-08-05T04:52:00.387Z,65.34
2022-08-05T04:55:13.875Z,65.76
2022-08-05T04:58:17.847Z,66.04
2022-08-05T05:02:05.445Z,67.08
2022-08-05T05:04:49.780Z,67.41
2022-08-05T05:07:56.128Z,66.90
2022-08-05T05:11:02.665Z,66.20
2022-08-05T05:14:04.451Z,65.20
2022-08-05T05:17:10.559Z,65.54
2022-08-05T05:20:13.841Z,65.30
2022-08-05T05:23:19.924Z,64.53
2022-08-05T05:26:28.287Z,63.33
2022-08-05T05:29:40.827Z,62.55
2022-08-05T05:32:56.394Z,60.99
2022-08-05T05:35:58.174Z,59.93
2022-08-05T05:39:03.859Z,59.54
2022-08-05T05:42:06.185Z,55.29
2022-08-05T05:45:09.221Z,52.13
2022-08-05T05:48:10.854Z,52.21
2022-08-05T05:51:19.762Z,49.85
2022-08-05T05:54:22.037Z,50.37
2022-08-05T05:57:52.141Z,49.41
2022-08-05T06:00:54.886Z,49.23
2022-08-05T06:04:02.140Z,47.36
2022-08-05T06:07:05.527Z,47.28
2022-08-05T06:10:10.465Z,45.67
2022-08-05T06:13:12.612Z,46.01
2022-08-05T06:16:28.883Z,45.71
2022-08-05T06:19:34.738Z,44.40
2022-08-05T06:22:37.451Z,44.14
2022-08-05T06:26:12.181Z,43.55
2022-08-05T06:29:06.934Z,43.91
2022-08-05T06:32:28.868Z,44.14
2022-08-05T06:36:05.782Z,43.56
2022-08-05T06:38:54.806Z,42.40
2022-08-05T06:42:04.192Z,42.53
2022-08-05T06:45:08.525Z,41.35
2022-08-05T06:48:36.627Z,42.35
2022-08-05T06:51:32.737Z,41.27
2022-08-05T06:54:34.787Z,40.73
2022-08-05T06:58:02.558Z,40.24
2022-08-05T07:01:01.288Z,39.18
2022-08-05T07:04:03.486Z,41.86
2022-08-05T07:07:06.265Z,40.32
2022-08-05T07:10:10.507Z,39.00
2022-08-05T07:13:57.053Z,39.08
2022-08-05T07:18:00.459Z,38.89
2022-08-05T07:20:33.442Z,40.25
2022-08-05T07:23:37.497Z,37.78
2022-08-05T07:26:51.201Z,36.34
2022-08-05T07:30:28.228Z,35.83
2022-08-05T07:33:16.467Z,35.53
2022-08-05T07:36:21.270Z,36.56
2022-08-05T07:39:50.342Z,35.13
2022-08-05T07:42:45.069Z,34.75
2022-08-05T07:45:56.693Z,34.68
2022-08-05T07:49:05.871Z,33.92
2022-08-05T07:52:08.332Z,33.91
2022-08-05T07:55:44.024Z,31.42
2022-08-05T07:58:54.712Z,32.48
2022-08-05T08:01:57.584Z,29.41
2022-08-05T08:05:00.823Z,29.94
2022-08-05T08:08:03.100Z,27.81
2022-08-05T08:11:05.177Z,26.04
2022-08-05T08:14:10.832Z,25.01
2022-08-05T08:17:21.429Z,27.20
2022-08-05T08:20:45.008Z,24.58
2022-08-05T08:24:03.357Z,24.87
2022-08-05T08:27:07.426Z,23.79
2022-08-05T08:30:30.212Z,24.18
2022-08-05T08:33:37.624Z,21.75
2022-08-05T08:36:47.594Z,22.48
2022-08-05T08:39:52.267Z,19.61
2022-08-05T08:42:54.751Z,18.71
2022-08-05T08:46:01.621Z,17.59
2022-08-05T08:50:04.092Z,18.57
2022-08-05T08:52:31.273Z,18.35
2022-08-05T08:56:03.141Z,16.89
2022-08-05T08:58:59.379Z,15.41
2022-08-05T09:02:08.725Z,15.25
2022-08-05T09:05:17.747Z,16.54
2022-08-05T09:08:20.361Z,16.13
2022-08-05T09:11:51.301Z,14.71
2022-08-05T09:14:58.065Z,13.99
2022-08-05T09:18:09.091Z,15.90
2022-08-05T09:21:11.711Z,14.44
2022-08-05T09:24:23.072Z,14.64
2022-08-05T09:28:04.307Z,13.21
2022-08-05T09:31:01.080Z,14.75
2022-08-05T09:34:22.765Z,12.72
2022-08-05T09:38:16.907Z,15.46
2022-08-05T09:40:52.240Z,14.14
2022-08-05T09:43:55.336Z,11.31
2022-08-05T09:47:10.498Z,13.38
2022-08-05T09:50:18.103Z,13.35
2022-08-05T09:53:53.964Z,11.48
2022-08-05T09:57:01.108Z,10.75
2022-08-05T10:00:15.673Z,10.05
2022-08-05T10:03:17.542Z,11.46
2022-08-05T10:06:22.073Z,12.36
2022-08-05T10:09:28.414Z,10.10
2022-08-05T10:12:59.995Z,10.59
2022-08-05T10:16:03.140Z,12.21
2022-08-05T10:19:09.377Z,10.70
2022-08-05T10:22:15.821Z,11.34
2022-08-05T10:25:32.420Z,12.04
2022-08-05T10:28:36.639Z,13.33
2022-08-05T10:32:52.207Z,12.83
2022-08-05T10:35:03.957Z,11.96
2022-08-05T10:38:08.377Z,12.88
2022-08-05T10:41:44.874Z,13.88
2022-08-05T10:44:49.377Z,15.28
2022-08-05T10:48:30.076Z,15.17
2022-08-05T10:51:21.900Z,15.37
2022-08-05T10:54:47.089Z,16.92
2022-08-05T10:58:11.910Z,17.32
2022-08-05T11:01:28.065Z,19.34
2022-08-05T11:04:48.049Z,17.32
2022-08-05T11:08:02.951Z,17.78
2022-08-05T11:11:53.279Z,19.51
2022-08-05T11:15:20.360Z,19.79
2022-08-05T11:18:27.574Z,20.78
2022-08-05T11:21:48.921Z,21.42
2022-08-05T11:26:05.098Z,21.03
2022-08-05T11:28:53.568Z,21.52
2022-08-05T11:32:26.474Z,19.75
2022-08-05T11:36:08.133Z,20.01
2022-08-05T11:39:12.248Z,19.73
2022-08-05T11:42:18.493Z,20.85
2022-08-05T11:46:15.411Z,20.99
2022-08-05T11:48:42.400Z,22.06
2022-08-05T11:51:49.514Z,20.95
2022-08-05T11:54:54.990Z,21.41
2022-08-05T11:58:10.028Z,21.02
2022-08-05T12:01:19.003Z,20.79
2022-08-05T12:08:08.963Z,20.99
2022-08-05T12:11:06.170Z,20.71
2022-08-05T12:14:10.104Z,19.54
2022-08-05T12:18:00.842Z,19.88
2022-08-05T12:20:38.733Z,20.05
2022-08-05T12:23:51.310Z,20.14
2022-08-05T12:26:54.876Z,19.48
2022-08-05T12:30:08.912Z,19.75
2022-08-05T12:33:27.080Z,19.04
2022-08-05T12:36:31.193Z,18.84
2022-08-05T12:39:34.615Z,19.01
2022-08-05T12:42:40.838Z,18.06
2022-08-05T12:45:56.545Z,18.20
2022-08-05T12:49:13.402Z,18.15
2022-08-05T12:52:25.257Z,16.86
2022-08-05T12:55:33.054Z,17.17
2022-08-05T12:58:52.743Z,16.51
2022-08-05T13:02:07.562Z,15.79
2022-08-05T13:05:12.745Z,15.31
2022-08-05T13:08:18.673Z,13.43
2022-08-05T13:12:02.655Z,11.83
2022-08-05T13:15:05.518Z,10.20
2022-08-05T13:18:09.554Z,9.56
2022-08-05T13:21:11.820Z,8.48
2022-08-05T13:24:14.602Z,8.46
2022-08-05T13:27:41.049Z,9.55
2022-08-05T13:30:43.064Z,8.06
2022-08-05T13:34:22.158Z,8.26
2022-08-05T13:37:07.123Z,8.07
2022-08-05T13:40:15.991Z,7.21
2022-08-05T13:43:22.368Z,6.83
2022-08-05T13:49:47.477Z,5.88
2022-08-05T13:52:50.731Z,5.26
2022-08-05T13:56:00.177Z,5.84
2022-08-05T13:59:06.266Z,6.35
2022-08-05T14:02:26.615Z,5.44
2022-08-05T14:06:24.522Z,6.23
2022-08-05T14:08:53.208Z,6.92
2022-08-05T14:12:00.661Z,6.79
2022-08-05T14:16:06.076Z,7.98
2022-08-05T14:18:39.029Z,7.56
2022-08-05T14:22:09.801Z,7.73
2022-08-05T14:25:06.426Z,7.17
2022-08-05T14:28:27.053Z,7.81
2022-08-05T14:32:03.520Z,8.19
2022-08-05T14:34:51.395Z,7.80
2022-08-05T14:37:55.381Z,8.45
2022-08-05T14:40:57.776Z,8.97
2022-08-05T14:44:09.743Z,10.10
2022-08-05T14:47:58.364Z,10.43
2022-08-05T14:50:43.946Z,12.59
2022-08-05T14:54:06.598Z,14.98
2022-08-05T14:57:09.788Z,15.08
2022-08-05T15:00:15.814Z,15.47
2022-08-05T15:03:22.972Z,15.78
2022-08-05T15:06:27.934Z,15.20
2022-08-05T15:09:51.743Z,16.85
2022-08-05T15:13:01.168Z,17.07
2022-08-05T15:16:06.387Z,16.77
2022-08-05T15:19:08.515Z,16.17
2022-08-05T15:22:27.062Z,16.86
2022-08-05T15:25:41.062Z,16.71
2022-08-05T15:28:52.055Z,17.89
2022-08-05T15:31:54.154Z,17.95
2022-08-05T15:34:57.287Z,17.54
2022-08-05T15:38:32.448Z,18.87
2022-08-05T15:41:24.651Z,19.32
2022-08-05T15:44:45.737Z,19.09
2022-08-05T15:47:47.693Z,18.09
2022-08-05T15:50:49.541Z,19.34
2022-08-05T15:53:53.447Z,18.78
2022-08-05T15:56:55.117Z,19.56
2022-08-05T15:59:57.657Z,19.64
2022-08-05T16:03:00.146Z,19.76
2022-08-05T16:06:02.436Z,18.68
2022-08-05T16:09:04.352Z,18.73
2022-08-05T16:12:06.571Z,20.11
2022-08-05T16:15:09.618Z,22.04
2022-08-05T16:18:12.384Z,20.69
2022-08-05T16:21:16.361Z,21.41
2022-08-05T16:24:41.265Z,20.23
2022-08-05T16:28:00.179Z,19.91
2022-08-05T16:31:03.833Z,19.72
2022-08-05T16:34:05.925Z,21.55
2022-08-05T16:38:01.755Z,20.97
2022-08-05T16:40:33.073Z,20.20
2022-08-05T16:43:35.324Z,20.77
2022-08-05T16:46:41.133Z,20.45
2022-08-05T16:49:43.153Z,22.07
2022-08-05T16:52:46.093Z,21.66
2022-08-05T16:55:48.047Z,22.12
2022-08-05T16:58:50.021Z,24.67
2022-08-05T17:01:54.898Z,25.92
2022-08-05T17:04:57.742Z,28.12
2022-08-05T17:07:59.579Z,30.09
2022-08-05T17:11:02.811Z,31.68
2022-08-05T17:14:06.270Z,31.61
2022-08-05T17:17:14.850Z,31.46
2022-08-05T17:20:17.003Z,29.01
2022-08-05T17:24:04.347Z,31.61
2022-08-05T17:26:41.009Z,29.93
2022-08-05T17:29:43.094Z,26.17
2022-08-05T17:32:45.005Z,26.48
2022-08-05T17:36:07.632Z,25.83
2022-08-05T17:39:23.759Z,25.76
2022-08-05T17:42:32.300Z,26.10
2022-08-05T17:45:38.626Z,26.27
2022-08-05T17:48:40.603Z,27.06
2022-08-05T17:51:46.711Z,29.98
2022-08-05T17:54:52.771Z,30.78
2022-08-05T17:57:56.091Z,32.02
2022-08-05T18:00:58.155Z,31.73
2022-08-05T18:04:04.518Z,33.11
2022-08-05T18:07:07.643Z,33.31
2022-08-05T18:10:21.044Z,32.36
2022-08-05T18:13:23.232Z,32.54
2022-08-05T18:16:27.536Z,32.45
2022-08-05T18:19:30.038Z,32.39
2022-08-05T18:22:36.284Z,33.02
2022-08-05T18:25:48.287Z,33.32
2022-08-05T18:29:00.467Z,36.43
2022-08-05T18:32:03.008Z,35.93
2022-08-05T18:35:05.362Z,37.45
2022-08-05T18:38:07.815Z,38.66
2022-08-05T18:41:53.251Z,42.58
2022-08-05T18:44:35.455Z,40.79
2022-08-05T18:47:56.745Z,41.92
2022-08-05T18:52:04.668Z,41.80
2022-08-05T18:54:41.233Z,39.53
2022-08-05T18:57:52.693Z,38.44
2022-08-05T19:00:55.632Z,38.54
2022-08-05T19:03:57.588Z,39.61
2022-08-05T19:06:59.749Z,40.11
2022-08-05T19:10:02.776Z,39.14
2022-08-05T19:13:15.727Z,39.50
2022-08-05T19:16:25.272Z,40.19
2022-08-05T19:19:32.249Z,41.28
2022-08-05T19:22:36.057Z,38.96
2022-08-05T19:25:43.620Z,40.84
2022-08-05T19:28:46.412Z,40.06
2022-08-05T19:31:51.348Z,40.36
2022-08-05T19:34:55.011Z,40.38
2022-08-05T19:38:06.379Z,40.92
2022-08-05T19:41:10.539Z,40.86
2022-08-05T19:44:13.399Z,40.85
2022-08-05T19:47:16.594Z,42.23
2022-08-05T19:50:20.455Z,41.81
2022-08-05T19:54:04.498Z,41.63
2022-08-05T19:56:48.512Z,41.24
2022-08-05T20:00:01.048Z,42.31
2022-08-05T20:03:08.474Z,43.10
2022-08-05T20:06:15.774Z,43.38
2022-08-05T20:09:30.759Z,41.84
2022-08-05T20:12:52.769Z,42.54
2022-08-05T20:15:56.804Z,43.36
2022-08-05T20:18:59.615Z,43.83
2022-08-05T20:22:03.275Z,42.51
2022-08-05T20:25:07.374Z,44.21
2022-08-05T20:28:13.783Z,44.93
2022-08-05T20:31:28.390Z,45.69
2022-08-05T20:34:39.420Z,44.13
2022-08-05T20:38:08.029Z,44.16
2022-08-05T20:41:08.303Z,46.51
2022-08-05T20:44:19.191Z,45.08
2022-08-05T20:47:32.737Z,44.10
2022-08-05T20:50:36.936Z,44.09
2022-08-05T20:53:41.597Z,45.76
2022-08-05T20:56:43.356Z,45.42
2022-08-05T20:59:46.078Z,47.04
2022-08-05T21:03:07.972Z,46.33
2022-08-05T21:06:27.712Z,47.03
2022-08-05T21:09:30.765Z,46.69
2022-08-05T21:12:36.291Z,47.64
2022-08-05T21:15:38.107Z,48.07
2022-08-05T21:18:42.934Z,46.48
2022-08-05T21:21:50.806Z,45.87
2022-08-05T21:24:54.789Z,46.31
2022-08-05T21:27:56.658Z,46.71
2022-08-05T21:30:59.059Z,46.47
2022-08-05T21:34:00.687Z,46.69
2022-08-05T21:37:04.779Z,47.10
2022-08-05T21:40:07.298Z,49.49
2022-08-05T21:43:23.891Z,49.28
2022-08-05T21:46:27.390Z,48.36
2022-08-05T21:49:59.397Z,49.10
2022-08-05T21:52:52.940Z,48.84
2022-08-05T21:56:05.571Z,49.49
2022-08-05T21:59:22.685Z,51.84
2022-08-05T22:02:27.594Z,53.07
2022-08-05T22:05:29.511Z,51.91
2022-08-05T22:08:52.617Z,52.15
2022-08-05T22:11:54.667Z,53.03
2022-08-05T22:14:58.861Z,52.71
2022-08-05T22:18:01.759Z,52.00
2022-08-05T22:21:04.675Z,51.35
2022-08-05T22:24:40.856Z,52.48
2022-08-05T22:28:09.062Z,52.19
2022-08-05T22:31:09.420Z,52.60
2022-08-05T22:34:25.419Z,50.78
2022-08-05T22:37:32.131Z,52.97
2022-08-05T22:40:55.010Z,50.86
2022-08-05T22:43:59.594Z,54.18
2022-08-05T22:47:01.350Z,54.87
2022-08-05T22:50:23.295Z,55.95
2022-08-05T22:53:35.940Z,56.33
2022-08-05T22:56:40.104Z,56.05
2022-08-05T22:59:51.942Z,56.41
2022-08-05T23:02:56.254Z,56.46
2022-08-05T23:05:59.908Z,54.72
2022-08-05T23:09:27.980Z,58.48
2022-08-05T23:12:25.416Z,57.45
2022-08-05T23:15:35.156Z,57.10
2022-08-05T23:18:38.561Z,56.45
2022-08-05T23:21:43.100Z,56.79
2022-08-05T23:24:51.373Z,57.47
2022-08-05T23:28:00.231Z,56.52
2022-08-05T23:31:17.159Z,57.43
2022-08-05T23:34:24.365Z,57.19
2022-08-05T23:37:26.703Z,57.26
2022-08-05T23:40:36.114Z,56.87
2022-08-05T23:44:05.430Z,57.68
2022-08-05T23:47:15.025Z,57.10
2022-08-05T23:50:20.291Z,57.38
2022-08-05T23:53:23.021Z,58.19
2022-08-05T23:56:27.523Z,58.00
